Time;durP1;ratioP1;P1;durP2;ratioP2;P2;SDS_P1;SDS_P2;PMS_P1;PMS_P2;Temp;Humidity;BMP_temperature;BMP_pressure;BME280_temperature;BME280_humidity;BME280_pressure;Samples;Min_cycle;Max_cycle;Signal;HPM_P1;HPM_P2
2022/05/09 00:00:19;;;;;;;23.35;16.92;;;11.90;99.90;;;;;;5032293;28;20030;-83
2022/05/09 00:02:48;;;;;;;23.67;15.75;;;11.90;99.90;;;;;;5016449;28;20508;-83
2022/05/09 00:05:16;;;;;;;21.33;15.65;;;11.80;99.90;;;;;;5032741;28;20030;-83
2022/05/09 00:07:43;;;;;;;27.83;17.52;;;11.80;99.90;;;;;;5032096;28;20104;-83
2022/05/09 00:10:13;;;;;;;21.55;16.55;;;11.80;99.90;;;;;;5024588;28;20449;-84
2022/05/09 00:12:39;;;;;;;21.77;16.95;;;11.80;99.90;;;;;;5032785;28;20037;-83
2022/05/09 00:15:06;;;;;;;25.80;17.60;;;11.80;99.90;;;;;;5016167;28;20064;-83
2022/05/09 00:17:32;;;;;;;26.42;16.83;;;11.90;99.90;;;;;;5032608;28;20045;-83
2022/05/09 00:19:57;;;;;;;25.80;17.95;;;11.90;99.90;;;;;;5016114;28;20052;-83
2022/05/09 00:22:23;;;;;;;24.25;18.10;;;12.00;99.90;;;;;;5015850;28;20041;-83
2022/05/09 00:24:49;;;;;;;25.27;17.80;;;12.00;99.90;;;;;;5032118;28;20025;-83
2022/05/09 00:27:15;;;;;;;24.98;18.25;;;12.00;99.90;;;;;;5032587;28;20455;-83
2022/05/09 00:29:40;;;;;;;24.85;18.23;;;12.00;99.90;;;;;;5032559;28;20033;-83
2022/05/09 00:32:07;;;;;;;21.45;16.77;;;12.00;99.90;;;;;;5016032;28;20029;-83
2022/05/09 00:34:37;;;;;;;20.73;16.95;;;11.90;99.90;;;;;;5031677;28;20425;-83
2022/05/09 00:37:04;;;;;;;24.67;18.05;;;11.90;99.90;;;;;;5015418;28;20037;-84
2022/05/09 00:39:29;;;;;;;22.60;17.33;;;11.90;99.90;;;;;;5015990;28;20043;-83
2022/05/09 00:42:07;;;;;;;29.02;17.08;;;11.90;99.90;;;;;;5014912;28;20397;-83
2022/05/09 00:44:32;;;;;;;23.02;16.88;;;11.80;99.90;;;;;;5031754;28;20124;-84
2022/05/09 00:46:58;;;;;;;22.27;17.83;;;11.80;99.90;;;;;;5015685;28;20124;-83
2022/05/09 00:49:29;;;;;;;30.08;19.08;;;11.70;99.90;;;;;;5015451;28;20041;-83
2022/05/09 00:52:10;;;;;;;21.77;16.40;;;11.70;99.90;;;;;;5015221;28;20116;-83
2022/05/09 00:54:47;;;;;;;21.30;17.20;;;11.70;99.90;;;;;;5031388;28;20481;-83
2022/05/09 00:57:29;;;;;;;27.52;18.02;;;11.60;99.90;;;;;;5015512;28;20073;-83
2022/05/09 01:00:00;;;;;;;24.80;18.08;;;11.60;99.90;;;;;;5015573;28;20034;-83
2022/05/09 01:02:26;;;;;;;23.40;16.70;;;11.70;99.90;;;;;;5015253;28;20034;-83
2022/05/09 01:04:54;;;;;;;24.83;17.10;;;11.70;99.90;;;;;;5031373;28;20404;-83
2022/05/09 01:07:22;;;;;;;27.58;17.55;;;11.70;99.90;;;;;;5014518;28;20060;-83
2022/05/09 01:09:48;;;;;;;23.80;16.77;;;11.70;99.90;;;;;;5031048;28;20060;-83
2022/05/09 01:12:20;;;;;;;21.63;16.52;;;11.60;99.90;;;;;;5014526;28;20052;-84
2022/05/09 01:14:46;;;;;;;22.00;17.55;;;11.60;99.90;;;;;;5014951;28;20038;-83
2022/05/09 01:17:13;;;;;;;28.60;18.38;;;11.50;99.90;;;;;;5015198;28;20481;-83
2022/05/09 01:19:41;;;;;;;25.38;18.30;;;11.40;99.90;;;;;;5030850;28;20654;-84
2022/05/09 01:22:37;;;;;;;26.63;17.77;;;11.30;99.90;;;;;;5031504;28;20022;-83
2022/05/09 01:25:09;;;;;;;26.15;19.08;;;11.30;99.90;;;;;;5022667;28;20061;-83
2022/05/09 01:27:37;;;;;;;23.90;17.70;;;11.30;99.90;;;;;;5031587;28;20114;-83
2022/05/09 01:30:20;;;;;;;28.38;17.98;;;11.30;99.90;;;;;;5015079;28;20037;-83
2022/05/09 01:32:45;;;;;;;25.58;18.02;;;11.30;99.90;;;;;;5015010;28;20048;-83
2022/05/09 01:35:34;;;;;;;27.20;18.75;;;11.40;99.90;;;;;;5014772;28;20401;-83
2022/05/09 01:38:33;;;;;;;23.42;17.73;;;11.40;99.90;;;;;;5031310;28;20436;-83
2022/05/09 01:40:59;;;;;;;23.13;17.40;;;11.40;99.90;;;;;;5014534;28;20040;-83
2022/05/09 01:43:54;;;;;;;26.60;18.50;;;11.30;99.90;;;;;;5014098;28;20038;-83
2022/05/09 01:46:31;;;;;;;23.95;17.42;;;11.30;99.90;;;;;;5012824;28;20388;-83
2022/05/09 01:51:46;;;;;;;23.30;18.25;;;11.20;99.90;;;;;;5030067;28;20022;-83
2022/05/09 01:54:12;;;;;;;30.85;19.58;;;11.10;99.90;;;;;;5013847;28;20033;-83
2022/05/09 01:56:40;;;;;;;31.52;19.88;;;11.10;99.90;;;;;;5030898;28;20029;-83
2022/05/09 01:59:08;;;;;;;26.38;18.38;;;11.10;99.90;;;;;;5014628;28;20041;-83
2022/05/09 02:01:41;;;;;;;24.85;17.63;;;11.10;99.90;;;;;;5031167;28;20026;-83
2022/05/09 02:04:08;;;;;;;27.65;20.42;;;11.00;99.90;;;;;;5014273;28;20095;-83
2022/05/09 02:06:34;;;;;;;25.27;19.98;;;11.00;99.90;;;;;;5030982;28;20029;-83
2022/05/09 02:09:00;;;;;;;30.13;19.02;;;11.10;99.90;;;;;;5030785;28;20450;-83
2022/05/09 02:11:26;;;;;;;31.75;21.23;;;11.00;99.90;;;;;;5015098;28;20065;-83
2022/05/09 02:13:52;;;;;;;27.80;19.27;;;11.00;99.90;;;;;;5014402;28;20128;-84
2022/05/09 02:16:17;;;;;;;24.95;19.23;;;11.00;99.90;;;;;;5030961;28;20491;-83
2022/05/09 02:18:43;;;;;;;25.92;19.67;;;11.00;99.90;;;;;;5031020;28;20033;-83
2022/05/09 02:21:09;;;;;;;32.47;20.88;;;10.90;99.90;;;;;;5030731;28;20041;-84
2022/05/09 02:23:35;;;;;;;28.27;20.77;;;10.90;99.90;;;;;;5030727;28;20029;-83
2022/05/09 02:26:01;;;;;;;30.02;20.20;;;10.90;99.90;;;;;;5014041;28;20491;-83
2022/05/09 02:28:27;;;;;;;27.33;18.58;;;10.80;99.90;;;;;;5030874;28;20493;-83
2022/05/09 02:30:53;;;;;;;26.52;20.63;;;10.80;99.90;;;;;;5032529;28;20108;-83
2022/05/09 02:33:19;;;;;;;25.08;19.65;;;10.80;99.90;;;;;;5017571;28;20049;-83
2022/05/09 02:35:47;;;;;;;30.90;20.48;;;10.70;99.90;;;;;;5033773;28;20029;-83
2022/05/09 02:38:12;;;;;;;28.75;20.98;;;10.70;99.90;;;;;;5017542;28;20424;-83
2022/05/09 02:40:40;;;;;;;29.48;20.58;;;10.70;99.90;;;;;;5017607;28;20045;-83
2022/05/09 02:43:06;;;;;;;34.50;21.55;;;10.60;99.90;;;;;;5017121;28;20030;-83
2022/05/09 02:45:32;;;;;;;30.17;21.33;;;10.60;99.90;;;;;;5034510;28;20032;-83
2022/05/09 02:47:58;;;;;;;35.00;22.95;;;10.60;99.90;;;;;;5017851;28;20035;-83
2022/05/09 02:50:26;;;;;;;29.20;21.17;;;10.60;99.90;;;;;;5017620;28;20114;-83
2022/05/09 02:52:52;;;;;;;29.25;20.40;;;10.60;99.90;;;;;;5017075;28;20041;-83
2022/05/09 02:55:19;;;;;;;36.78;21.38;;;10.60;99.90;;;;;;5017189;28;20044;-83
2022/05/09 02:57:45;;;;;;;27.75;21.35;;;10.60;99.90;;;;;;5033910;28;20116;-83
2022/05/09 03:00:21;;;;;;;31.33;21.60;;;10.50;99.90;;;;;;5016748;28;20120;-83
2022/05/09 03:05:33;;;;;;;31.40;23.33;;;10.40;99.90;;;;;;5033830;28;20029;-83
2022/05/09 03:07:59;;;;;;;33.08;23.13;;;10.30;99.90;;;;;;5017162;28;20040;-83
2022/05/09 03:10:28;;;;;;;29.88;22.63;;;10.30;99.90;;;;;;5016972;28;20108;-83
2022/05/09 03:12:59;;;;;;;32.70;22.55;;;10.30;99.90;;;;;;5016826;28;20451;-83
2022/05/09 03:15:26;;;;;;;35.03;23.90;;;10.30;99.90;;;;;;5016894;28;20488;-82
2022/05/09 03:17:52;;;;;;;33.20;23.60;;;10.30;99.90;;;;;;5016798;28;20033;-83
2022/05/09 03:20:21;;;;;;;31.35;21.05;;;10.20;99.90;;;;;;5033272;28;20040;-83
2022/05/09 03:22:48;;;;;;;37.08;21.75;;;10.20;99.90;;;;;;5016792;28;20434;-83
2022/05/09 03:25:14;;;;;;;34.05;22.90;;;10.20;99.90;;;;;;5032945;28;20361;-83
2022/05/09 03:27:39;;;;;;;34.60;22.13;;;10.20;99.90;;;;;;5016227;28;20034;-84
2022/05/09 03:30:07;;;;;;;35.83;23.08;;;10.20;99.90;;;;;;5016335;28;20022;-83
2022/05/09 03:32:34;;;;;;;32.47;24.15;;;10.20;99.90;;;;;;5015983;28;20129;-83
2022/05/09 03:35:00;;;;;;;34.72;22.40;;;10.10;99.90;;;;;;5032463;28;20056;-83
2022/05/09 03:37:25;;;;;;;33.88;22.73;;;10.10;99.90;;;;;;5033063;28;20025;-83
2022/05/09 03:39:51;;;;;;;29.75;21.83;;;10.10;99.90;;;;;;5033127;28;20041;-83
2022/05/09 03:42:17;;;;;;;35.42;23.58;;;10.00;99.90;;;;;;5015658;28;20040;-83
2022/05/09 03:44:42;;;;;;;34.47;23.88;;;10.10;99.90;;;;;;5016197;28;20067;-83
2022/05/09 03:47:09;;;;;;;35.63;23.33;;;10.10;99.90;;;;;;5032793;28;20032;-83
2022/05/09 03:49:35;;;;;;;38.17;23.10;;;10.10;99.90;;;;;;5016279;28;20022;-83
2022/05/09 03:52:01;;;;;;;32.80;24.20;;;10.00;99.90;;;;;;5032897;28;20033;-81
2022/05/09 03:54:26;;;;;;;35.65;23.42;;;10.00;99.90;;;;;;5016383;28;20106;-81
2022/05/09 03:56:52;;;;;;;30.63;21.38;;;10.00;99.90;;;;;;5033111;28;20038;-80
2022/05/09 03:59:18;;;;;;;37.35;23.58;;;10.00;99.90;;;;;;5016542;28;20033;-81
2022/05/09 04:01:43;;;;;;;30.48;22.67;;;10.00;99.90;;;;;;5032745;28;20072;-81
2022/05/09 04:04:09;;;;;;;36.90;22.80;;;10.00;99.90;;;;;;5016008;28;20021;-81
2022/05/09 04:06:35;;;;;;;36.33;21.80;;;10.00;99.90;;;;;;5033802;28;20430;-81
2022/05/09 04:09:03;;;;;;;33.00;22.85;;;10.10;99.90;;;;;;5033621;28;20029;-81
2022/05/09 04:11:29;;;;;;;34.00;21.40;;;10.10;99.90;;;;;;5032460;28;20033;-81
2022/05/09 04:13:55;;;;;;;30.25;20.58;;;10.10;99.90;;;;;;5032100;28;20389;-80
2022/05/09 04:19:05;;;;;;;29.48;19.25;;;10.00;99.90;;;;;;5031319;28;20033;-81
2022/05/09 04:21:30;;;;;;;29.08;18.40;;;10.10;99.90;;;;;;5032436;28;20545;-81
2022/05/09 04:23:58;;;;;;;34.15;19.38;;;10.10;99.90;;;;;;5033325;28;20433;-81
2022/05/09 04:26:30;;;;;;;25.95;18.45;;;10.10;99.90;;;;;;5031561;28;20025;-81
2022/05/09 04:28:57;;;;;;;30.65;19.67;;;10.20;99.90;;;;;;5032034;28;20033;-81
2022/05/09 04:31:23;;;;;;;34.30;18.17;;;10.20;99.90;;;;;;5009978;28;20582;-81
2022/05/09 04:33:49;;;;;;;33.42;18.77;;;10.40;99.90;;;;;;5030663;28;20104;-81
2022/05/09 04:36:16;;;;;;;30.13;18.48;;;10.30;99.90;;;;;;5014090;28;20022;-81
2022/05/09 04:38:43;;;;;;;24.45;16.88;;;10.30;99.90;;;;;;5014899;28;20032;-81
2022/05/09 04:41:10;;;;;;;23.50;17.35;;;10.40;99.90;;;;;;5014709;28;20025;-81
2022/05/09 04:43:37;;;;;;;26.35;16.92;;;10.50;99.90;;;;;;5014776;28;20034;-81
2022/05/09 04:46:04;;;;;;;23.63;16.20;;;10.60;99.90;;;;;;5014965;28;20495;-81
2022/05/09 04:48:30;;;;;;;24.10;16.77;;;10.70;99.90;;;;;;5032389;28;20029;-81
2022/05/09 04:50:56;;;;;;;24.17;15.75;;;10.80;99.90;;;;;;5031490;28;20483;-81
2022/05/09 04:53:22;;;;;;;23.65;15.90;;;10.80;99.90;;;;;;5031700;28;20037;-81
2022/05/09 04:55:48;;;;;;;21.90;16.17;;;10.90;99.90;;;;;;5032024;28;20515;-82
2022/05/09 04:58:16;;;;;;;26.63;15.63;;;10.90;99.90;;;;;;5031533;28;20809;-81
2022/05/09 05:00:42;;;;;;;32.22;16.08;;;11.00;99.90;;;;;;5015094;28;20132;-80
2022/05/09 05:03:08;;;;;;;21.33;15.00;;;11.10;99.90;;;;;;5014716;28;20141;-81
2022/05/09 05:05:34;;;;;;;22.08;15.00;;;11.20;99.90;;;;;;5015150;28;20128;-81
2022/05/09 05:08:00;;;;;;;19.92;14.63;;;11.30;99.90;;;;;;5031051;28;20033;-81
2022/05/09 05:10:28;;;;;;;21.35;14.00;;;11.40;99.90;;;;;;5014912;28;20033;-81
2022/05/09 05:12:54;;;;;;;21.85;13.02;;;11.50;99.90;;;;;;5014796;28;20045;-81
2022/05/09 05:15:20;;;;;;;19.85;12.95;;;11.60;99.90;;;;;;5031146;28;20029;-81
2022/05/09 05:17:45;;;;;;;20.42;13.65;;;11.60;99.90;;;;;;5030944;28;20041;-81
2022/05/09 05:20:15;;;;;;;25.30;13.07;;;11.70;99.90;;;;;;5031094;28;20034;-81
2022/05/09 05:22:43;;;;;;;18.45;12.90;;;11.80;99.90;;;;;;5014170;28;20820;-81
2022/05/09 05:25:11;;;;;;;21.45;13.40;;;11.90;99.90;;;;;;5014173;28;20040;-81
2022/05/09 05:27:37;;;;;;;20.95;13.85;;;12.00;99.90;;;;;;5030844;28;20029;-81
2022/05/09 05:30:04;;;;;;;21.60;12.68;;;12.00;99.90;;;;;;5030629;28;20420;-81
2022/05/09 05:32:34;;;;;;;16.83;12.57;;;12.10;99.90;;;;;;5014267;28;20132;-81
2022/05/09 05:35:00;;;;;;;19.15;12.20;;;12.20;99.90;;;;;;5014062;28;20120;-81
2022/05/09 05:37:26;;;;;;;22.55;13.05;;;12.30;99.90;;;;;;5014358;28;20025;-81
2022/05/09 05:39:52;;;;;;;17.73;11.95;;;12.40;99.90;;;;;;5030338;28;20524;-81
2022/05/09 05:42:19;;;;;;;16.27;11.70;;;12.50;99.90;;;;;;5027191;28;20105;-81
2022/05/09 05:44:46;;;;;;;18.85;12.55;;;12.60;99.90;;;;;;5030428;28;20036;-81
2022/05/09 05:47:16;;;;;;;22.30;11.60;;;12.60;99.90;;;;;;5012722;28;20128;-81
2022/05/09 05:49:42;;;;;;;17.98;12.18;;;12.70;99.90;;;;;;5030060;28;20037;-81
2022/05/09 05:52:09;;;;;;;18.88;11.98;;;12.80;99.90;;;;;;5013671;28;20083;-81
2022/05/09 05:54:39;;;;;;;17.13;11.57;;;12.90;99.90;;;;;;5030258;28;20029;-81
2022/05/09 05:57:25;;;;;;;16.17;11.77;;;13.00;99.90;;;;;;5032019;28;20485;-81
2022/05/09 05:59:57;;;;;;;18.20;11.98;;;13.10;99.90;;;;;;5026749;28;20029;-80
2022/05/09 06:02:23;;;;;;;13.65;10.63;;;13.20;99.90;;;;;;5030243;28;20029;-81
2022/05/09 06:04:50;;;;;;;17.13;12.02;;;13.20;99.90;;;;;;5013413;28;20069;-81
2022/05/09 06:07:17;;;;;;;13.43;11.77;;;13.30;99.90;;;;;;5017015;28;20087;-81
2022/05/09 06:09:45;;;;;;;17.67;12.18;;;13.40;99.90;;;;;;5035226;28;20065;-81
2022/05/09 06:12:12;;;;;;;16.10;11.60;;;13.40;99.90;;;;;;5017641;28;20033;-81
2022/05/09 06:14:38;;;;;;;24.60;11.73;;;13.50;99.90;;;;;;5035015;28;20104;-81
2022/05/09 06:17:05;;;;;;;18.83;12.07;;;13.60;99.90;;;;;;5034346;28;20038;-81
2022/05/09 06:19:31;;;;;;;13.65;10.18;;;13.60;99.90;;;;;;5017553;28;20037;-81
2022/05/09 06:21:59;;;;;;;19.38;10.45;;;13.70;99.90;;;;;;5034266;28;20520;-81
2022/05/09 06:24:26;;;;;;;13.95;10.25;;;13.80;99.90;;;;;;5017289;28;20033;-81
2022/05/09 06:26:52;;;;;;;15.15;10.90;;;13.90;99.90;;;;;;5034166;28;20192;-81
2022/05/09 06:29:18;;;;;;;15.55;10.95;;;13.90;99.90;;;;;;5034229;28;20101;-81
2022/05/09 06:31:45;;;;;;;18.13;11.18;;;13.90;99.90;;;;;;5017540;28;20029;-81
2022/05/09 06:34:13;;;;;;;14.75;11.10;;;14.00;99.90;;;;;;5033792;28;20168;-81
2022/05/09 06:36:40;;;;;;;19.30;11.35;;;14.10;99.90;;;;;;5017604;28;20041;-82
2022/05/09 06:39:08;;;;;;;18.38;11.35;;;14.10;99.90;;;;;;5034335;28;20033;-81
2022/05/09 06:41:33;;;;;;;17.35;11.88;;;14.20;99.90;;;;;;5033622;28;20115;-81
2022/05/09 06:43:59;;;;;;;16.52;11.25;;;14.30;99.90;;;;;;5016559;28;20496;-81
2022/05/09 06:46:25;;;;;;;14.10;10.80;;;14.40;99.90;;;;;;5017822;28;20035;-81
2022/05/09 06:48:52;;;;;;;15.77;10.85;;;14.40;99.90;;;;;;5017795;28;20132;-81
2022/05/09 06:51:20;;;;;;;15.00;10.75;;;14.40;99.90;;;;;;5035237;28;20048;-81
2022/05/09 06:53:46;;;;;;;13.07;10.13;;;14.50;99.90;;;;;;5033782;28;20068;-82
2022/05/09 06:56:12;;;;;;;12.43;10.13;;;14.60;99.90;;;;;;5032823;28;20083;-81
2022/05/09 06:58:38;;;;;;;14.52;11.32;;;14.70;99.90;;;;;;5033841;28;20128;-82
2022/05/09 07:01:16;;;;;;;14.63;11.35;;;14.80;99.90;;;;;;5011997;28;20041;-81
2022/05/09 07:03:43;;;;;;;16.67;12.00;;;14.80;99.90;;;;;;5033269;28;20030;-81
2022/05/09 07:06:09;;;;;;;15.07;11.55;;;14.80;99.90;;;;;;5033754;28;20370;-81
2022/05/09 07:08:35;;;;;;;17.27;11.25;;;14.80;99.90;;;;;;5016528;28;20033;-81
2022/05/09 07:11:02;;;;;;;17.83;10.48;;;14.80;99.90;;;;;;5017142;28;20745;-81
2022/05/09 07:13:29;;;;;;;12.38;9.82;;;14.80;99.90;;;;;;5033656;28;20096;-81
2022/05/09 07:15:57;;;;;;;20.42;11.52;;;14.90;99.90;;;;;;5033680;28;20786;-81
2022/05/09 07:18:26;;;;;;;18.08;10.93;;;14.90;99.90;;;;;;5031578;28;20040;-81
2022/05/09 07:20:52;;;;;;;16.65;10.73;;;15.00;99.90;;;;;;5033265;28;20033;-80
2022/05/09 07:23:17;;;;;;;16.08;10.25;;;15.10;99.90;;;;;;5016475;28;20033;-81
2022/05/09 07:25:43;;;;;;;19.02;9.98;;;15.20;99.90;;;;;;5033092;28;20033;-81
2022/05/09 07:28:11;;;;;;;15.00;9.75;;;15.30;99.90;;;;;;5017070;28;20067;-81
2022/05/09 07:30:38;;;;;;;16.35;10.05;;;15.50;99.90;;;;;;5033628;28;20766;-81
2022/05/09 07:33:04;;;;;;;10.68;8.80;;;15.50;99.90;;;;;;5032855;28;20052;-81
2022/05/09 07:35:32;;;;;;;15.57;9.73;;;15.60;99.90;;;;;;5032603;28;20031;-81
2022/05/09 07:37:58;;;;;;;17.02;11.13;;;15.70;99.90;;;;;;5015974;28;20115;-81
2022/05/09 07:40:23;;;;;;;12.65;9.60;;;15.80;99.90;;;;;;5033844;28;20084;-81
2022/05/09 07:42:49;;;;;;;16.13;9.57;;;15.90;99.90;;;;;;5016113;28;20833;-81
2022/05/09 07:45:19;;;;;;;14.15;8.70;;;15.90;99.90;;;;;;5016070;28;20036;-81
2022/05/09 07:47:46;;;;;;;13.70;9.02;;;16.00;99.90;;;;;;5032877;28;20393;-82
2022/05/09 07:50:13;;;;;;;13.85;8.50;;;16.00;99.90;;;;;;5016247;28;20563;-81
2022/05/09 07:52:42;;;;;;;10.82;8.63;;;16.00;99.90;;;;;;5032702;28;20025;-81
2022/05/09 07:55:11;;;;;;;14.25;9.35;;;16.10;99.90;;;;;;5015914;28;20080;-81
2022/05/09 07:57:37;;;;;;;14.35;9.48;;;16.20;99.90;;;;;;5034047;28;20029;-81
2022/05/09 08:00:05;;;;;;;12.77;8.73;;;16.30;99.90;;;;;;5032655;28;20473;-81
2022/05/09 08:02:32;;;;;;;13.60;9.27;;;16.40;99.90;;;;;;5032676;28;20126;-81
2022/05/09 08:04:58;;;;;;;13.18;8.35;;;16.50;99.90;;;;;;5015956;28;20489;-81
2022/05/09 08:07:24;;;;;;;13.15;9.07;;;16.70;99.90;;;;;;5031172;28;20029;-81
2022/05/09 08:09:51;;;;;;;14.18;8.32;;;16.90;99.90;;;;;;5031154;28;20025;-81
2022/05/09 08:12:17;;;;;;;9.93;7.10;;;17.90;99.90;;;;;;5031491;28;20087;-81
2022/05/09 08:14:43;;;;;;;10.50;6.20;;;19.50;99.90;;;;;;5031905;28;20485;-81
2022/05/09 08:17:11;;;;;;;12.10;6.05;;;20.80;99.90;;;;;;5015824;28;20029;-81
2022/05/09 08:19:38;;;;;;;7.90;5.97;;;22.10;99.90;;;;;;5031895;28;20052;-81
2022/05/09 08:22:06;;;;;;;10.85;6.60;;;23.30;99.90;;;;;;5031962;28;20033;-81
2022/05/09 08:24:32;;;;;;;9.50;6.10;;;24.30;99.90;;;;;;5014061;28;20040;-82
2022/05/09 08:26:57;;;;;;;9.55;5.70;;;24.50;99.90;;;;;;5013454;28;20382;-81
2022/05/09 08:29:23;;;;;;;9.23;5.88;;;25.00;99.90;;;;;;5014140;28;20084;-81
2022/05/09 08:31:49;;;;;;;7.93;6.40;;;25.50;98.70;;;;;;5033667;28;20134;-81
2022/05/09 08:34:15;;;;;;;7.22;5.38;;;25.60;96.40;;;;;;5032338;28;20049;-82
2022/05/09 08:36:53;;;;;;;6.15;5.53;;;25.80;95.30;;;;;;5015778;28;20072;-81
2022/05/09 08:39:20;;;;;;;10.68;5.15;;;26.00;94.90;;;;;;5031479;28;20033;-81
2022/05/09 08:42:00;;;;;;;6.32;5.13;;;26.30;92.90;;;;;;5015708;28;20033;-82
2022/05/09 08:44:53;;;;;;;9.10;5.93;;;26.90;91.70;;;;;;5032973;28;20674;-81
2022/05/09 08:47:51;;;;;;;8.10;6.00;;;27.20;86.20;;;;;;5032073;28;20033;-82
2022/05/09 08:50:37;;;;;;;10.15;5.95;;;27.00;86.30;;;;;;5015301;28;20033;-82
2022/05/09 08:53:16;;;;;;;8.00;5.72;;;26.40;86.40;;;;;;5031948;28;20043;-81
2022/05/09 08:55:44;;;;;;;8.82;5.60;;;26.40;88.70;;;;;;5033074;28;20104;-81
2022/05/09 08:58:27;;;;;;;7.07;5.40;;;26.10;89.00;;;;;;5015776;28;20084;-81
2022/05/09 09:00:54;;;;;;;9.52;5.40;;;25.70;90.50;;;;;;5031465;28;20250;-81
2022/05/09 09:03:37;;;;;;;9.98;6.07;;;25.80;90.70;;;;;;5031136;28;20116;-82
2022/05/09 09:06:27;;;;;;;10.05;5.65;;;25.30;87.00;;;;;;5031469;28;20064;-81
2022/05/09 09:09:22;;;;;;;13.25;7.13;;;25.40;91.60;;;;;;5015139;28;20493;-81
2022/05/09 09:12:09;;;;;;;8.00;6.18;;;25.30;90.10;;;;;;5025019;28;20050;-81
2022/05/09 09:15:12;;;;;;;9.25;5.90;;;25.00;90.00;;;;;;5015292;28;20040;-82
2022/05/09 09:17:59;;;;;;;7.20;6.18;;;25.00;89.70;;;;;;5028135;28;20056;-81
2022/05/09 09:20:53;;;;;;;7.35;5.88;;;25.10;88.60;;;;;;5031595;28;20435;-81
2022/05/09 09:23:49;;;;;;;7.30;5.18;;;25.50;90.80;;;;;;5014241;28;20458;-82
2022/05/09 09:26:26;;;;;;;8.88;6.53;;;26.50;87.00;;;;;;5030777;28;20030;-82
2022/05/09 09:28:56;;;;;;;7.82;6.18;;;26.80;85.60;;;;;;5014425;28;20084;-82
2022/05/09 09:31:34;;;;;;;9.57;5.53;;;26.80;82.10;;;;;;5014637;28;20030;-81
2022/05/09 09:34:30;;;;;;;8.98;6.68;;;27.40;78.70;;;;;;5014507;28;20111;-81
2022/05/09 09:37:11;;;;;;;10.68;6.07;;;28.20;77.30;;;;;;5025596;28;20104;-81
2022/05/09 09:39:36;;;;;;;;;;;27.50;72.50;;;;;;5031020;28;20061;-81
2022/05/09 09:42:04;;;;;;;8.90;5.13;;;27.20;76.20;;;;;;5030928;28;19916;-81
2022/05/09 09:44:34;;;;;;;8.32;6.03;;;28.00;76.00;;;;;;5014386;28;20756;-81
2022/05/09 09:47:24;;;;;;;10.73;6.33;;;28.20;72.40;;;;;;5031367;28;20029;-82
2022/05/09 09:50:11;;;;;;;13.07;5.80;;;27.40;73.10;;;;;;5031193;28;20648;-81
2022/05/09 09:52:49;;;;;;;9.00;5.60;;;27.20;72.70;;;;;;5031938;28;20385;-82
2022/05/09 09:55:28;;;;;;;11.27;6.03;;;26.60;74.80;;;;;;5014312;28;20034;-81
2022/05/09 09:57:55;;;;;;;7.05;6.35;;;25.50;76.20;;;;;;5014922;28;20485;-82
2022/05/09 10:00:35;;;;;;;9.98;6.18;;;25.10;79.80;;;;;;5032685;28;20408;-81
2022/05/09 10:03:21;;;;;;;9.02;6.65;;;24.80;75.80;;;;;;5014008;28;20039;-82
2022/05/09 10:05:49;;;;;;;10.93;6.45;;;24.50;77.20;;;;;;5030753;28;20033;-82
2022/05/09 10:08:29;;;;;;;8.27;6.28;;;23.70;78.60;;;;;;5030661;28;20041;-82
2022/05/09 10:11:00;;;;;;;7.68;6.13;;;23.30;82.00;;;;;;5014671;28;20509;-82
2022/05/09 10:14:02;;;;;;;11.70;6.60;;;23.50;83.40;;;;;;5031135;28;20480;-81
2022/05/09 10:16:48;;;;;;;10.45;5.85;;;23.20;82.50;;;;;;5006579;28;20053;-82
2022/05/09 10:19:30;;;;;;;8.45;5.80;;;23.70;85.60;;;;;;5014807;28;20048;-82
2022/05/09 10:25:10;;;;;;;6.78;4.93;;;24.60;78.00;;;;;;5032164;28;20080;-81
2022/05/09 10:27:38;;;;;;;9.23;6.30;;;24.40;74.30;;;;;;5031182;28;20033;-81
2022/05/09 10:30:29;;;;;;;9.80;5.47;;;24.60;79.80;;;;;;5031312;28;20045;-81
2022/05/09 10:33:01;;;;;;;7.68;5.43;;;24.90;73.30;;;;;;5029902;28;20026;-81
2022/05/09 10:35:37;;;;;;;10.43;6.28;;;25.00;81.70;;;;;;5030505;28;20825;-81
2022/05/09 10:38:19;;;;;;;6.53;5.40;;;24.40;80.10;;;;;;5014434;28;20790;-81
2022/05/09 10:40:55;;;;;;;8.35;4.93;;;24.20;77.20;;;;;;5030894;28;20075;-81
2022/05/09 10:43:45;;;;;;;9.45;5.57;;;24.80;74.10;;;;;;5030422;28;20029;-82
2022/05/09 10:46:12;;;;;;;7.10;5.57;;;25.00;76.10;;;;;;5014418;28;20029;-81
2022/05/09 10:49:03;;;;;;;9.48;4.75;;;24.80;74.40;;;;;;5014042;28;20108;-81
2022/05/09 10:51:52;;;;;;;8.38;5.72;;;25.60;74.20;;;;;;5031310;28;20037;-81
2022/05/09 10:54:45;;;;;;;7.93;5.30;;;26.60;74.20;;;;;;5033763;28;20072;-82
2022/05/09 10:57:39;;;;;;;6.55;5.88;;;26.80;69.40;;;;;;5034246;28;20045;-81
2022/05/09 11:00:09;;;;;;;6.32;4.80;;;26.50;70.70;;;;;;5017511;28;20037;-82
2022/05/09 11:02:41;;;;;;;;;;;26.30;69.90;;;;;;5034495;28;20029;-82
2022/05/09 11:05:07;;;;;;;8.10;5.03;;;25.90;68.40;;;;;;5050450;28;19913;-82
2022/05/09 11:07:52;;;;;;;8.85;5.35;;;25.90;68.90;;;;;;5016843;28;20500;-82
2022/05/09 11:10:44;;;;;;;6.95;5.40;;;25.70;72.00;;;;;;5017783;28;20488;-81
2022/05/09 11:13:25;;;;;;;11.13;5.82;;;25.40;75.20;;;;;;5017454;28;20094;-82
2022/05/09 11:16:20;;;;;;;;;;;25.50;74.80;;;;;;5018069;28;20033;-81
2022/05/09 11:18:55;;;;;;;9.88;6.30;;;25.60;77.50;;;;;;5028180;28;20697;-82
2022/05/09 11:21:40;;;;;;;6.88;5.40;;;24.90;76.20;;;;;;5033453;28;20025;-82
2022/05/09 11:24:39;;;;;;;5.80;4.43;;;24.70;72.90;;;;;;5033670;28;20033;-81
2022/05/09 11:27:25;;;;;;;8.10;5.70;;;25.00;73.20;;;;;;5034426;28;20025;-82
2022/05/09 11:30:17;;;;;;;7.07;5.20;;;24.60;73.20;;;;;;5033264;28;20029;-81
2022/05/09 11:32:46;;;;;;;11.77;6.30;;;24.70;73.50;;;;;;5014389;28;20405;-82
2022/05/09 11:35:28;;;;;;;10.15;5.63;;;24.90;78.30;;;;;;5034050;28;20017;-82
2022/05/09 11:38:23;;;;;;;10.07;5.05;;;25.20;76.60;;;;;;5014002;28;20373;-82
2022/05/09 11:41:26;;;;;;;7.28;5.15;;;25.70;75.30;;;;;;5016587;28;20026;-82
2022/05/09 11:43:58;;;;;;;7.45;4.70;;;26.40;72.60;;;;;;5032461;28;20428;-81
2022/05/09 11:46:30;;;;;;;8.23;5.07;;;26.20;70.80;;;;;;5016480;28;20583;-82
2022/05/09 11:49:10;;;;;;;9.68;5.32;;;25.50;71.30;;;;;;5016748;28;20485;-81
2022/05/09 11:51:39;;;;;;;8.05;5.30;;;25.00;75.10;;;;;;5016882;28;20120;-82
2022/05/09 11:54:09;;;;;;;5.13;4.50;;;25.20;72.50;;;;;;5016635;28;20080;-82
2022/05/09 11:56:36;;;;;;;8.23;5.80;;;25.40;76.50;;;;;;5033318;28;20555;-82
2022/05/09 11:59:04;;;;;;;7.95;5.47;;;25.10;72.20;;;;;;5016684;28;20048;-82
2022/05/09 12:01:51;;;;;;;10.98;5.80;;;25.10;74.10;;;;;;5032879;28;20083;-82
2022/05/09 12:04:42;;;;;;;8.20;4.47;;;25.20;74.00;;;;;;5031964;28;20095;-81
2022/05/09 12:07:26;;;;;;;9.32;4.95;;;24.90;76.30;;;;;;5032636;28;20034;-81
2022/05/09 12:10:15;;;;;;;9.57;4.82;;;24.80;74.80;;;;;;5016472;28;20511;-81
2022/05/09 12:12:49;;;;;;;10.55;5.15;;;24.90;73.20;;;;;;5016613;28;20082;-82
2022/05/09 12:15:15;;;;;;;7.70;5.40;;;24.60;73.90;;;;;;5016008;28;20021;-81
2022/05/09 12:17:48;;;;;;;6.60;4.60;;;23.90;76.20;;;;;;5032122;28;20167;-81
2022/05/09 12:20:25;;;;;;;9.43;5.35;;;23.70;76.30;;;;;;5032337;28;20029;-82
2022/05/09 12:22:52;;;;;;;8.88;5.35;;;23.40;78.30;;;;;;5016022;28;20037;-82
2022/05/09 12:25:32;;;;;;;8.05;4.70;;;23.50;77.30;;;;;;5032564;28;20658;-82
2022/05/09 12:28:04;;;;;;;11.60;5.05;;;23.90;77.70;;;;;;5014306;28;20040;-81
2022/05/09 12:31:04;;;;;;;8.90;4.75;;;24.00;77.30;;;;;;5016117;28;20033;-81
2022/05/09 12:33:39;;;;;;;6.78;4.75;;;24.20;77.30;;;;;;4998724;28;20080;-81
2022/05/09 12:36:15;;;;;;;11.73;4.88;;;24.20;76.10;;;;;;5015687;28;20087;-81
2022/05/09 12:38:44;;;;;;;6.63;4.80;;;24.30;74.60;;;;;;5015245;28;20480;-83
2022/05/09 12:41:09;;;;;;;7.00;4.97;;;25.10;76.80;;;;;;5015741;28;20079;-82
2022/05/09 12:43:38;;;;;;;7.93;4.70;;;25.20;74.40;;;;;;5031597;28;20034;-81
2022/05/09 12:46:07;;;;;;;9.13;4.65;;;25.20;72.90;;;;;;5031730;28;20155;-82
2022/05/09 12:48:38;;;;;;;7.88;4.43;;;25.50;69.10;;;;;;5027605;28;20037;-81
2022/05/09 12:51:09;;;;;;;;;;;26.20;67.70;;;;;;5015477;28;20044;-82
2022/05/09 12:53:35;;;;;;;6.07;4.65;;;26.40;68.50;;;;;;5031390;28;20008;-82
2022/05/09 12:56:10;;;;;;;7.15;4.30;;;26.70;66.80;;;;;;5031628;28;20025;-82
2022/05/09 12:58:44;;;;;;;8.73;4.18;;;27.20;65.30;;;;;;5015235;28;20481;-82
2022/05/09 13:01:12;;;;;;;6.53;5.15;;;27.00;66.50;;;;;;5031631;28;20030;-82
2022/05/09 13:03:42;;;;;;;7.28;4.75;;;26.70;67.90;;;;;;5033078;28;20029;-82
2022/05/09 13:06:16;;;;;;;6.45;4.47;;;26.40;66.70;;;;;;5015251;28;20800;-82
2022/05/09 13:08:42;;;;;;;4.55;3.90;;;26.80;68.30;;;;;;5015058;28;20045;-82